sensor_id;sensor_type;location;lat;lon;timestamp;pressure;altitude;pressure_sealevel;temperature;humidity
8575;BME280;4325;42.520;27.448;2022-07-23T00:01:29;101086.16;;;21.70;71.75
8575;BME280;4325;42.520;27.448;2022-07-23T00:03:56;101083.84;;;21.72;71.54
8575;BME280;4325;42.520;27.448;2022-07-23T00:06:23;101089.41;;;21.72;70.39
8575;BME280;4325;42.520;27.448;2022-07-23T00:08:51;101089.41;;;21.72;69.74
8575;BME280;4325;42.520;27.448;2022-07-23T00:11:18;101091.72;;;21.70;69.80
8575;BME280;4325;42.520;27.448;2022-07-23T00:13:45;101100.09;;;21.70;70.05
8575;BME280;4325;42.520;27.448;2022-07-23T00:16:13;101097.63;;;21.68;68.63
8575;BME280;4325;42.520;27.448;2022-07-23T00:18:40;101098.81;;;21.59;69.23
8575;BME280;4325;42.520;27.448;2022-07-23T00:21:07;101101.66;;;21.50;70.26
8575;BME280;4325;42.520;27.448;2022-07-23T00:23:34;101105.66;;;21.41;70.11
8575;BME280;4325;42.520;27.448;2022-07-23T00:26:01;101108.16;;;21.34;70.35
8575;BME280;4325;42.520;27.448;2022-07-23T00:28:27;101103.44;;;21.26;71.28
8575;BME280;4325;42.520;27.448;2022-07-23T00:30:54;101098.69;;;21.18;73.34
8575;BME280;4325;42.520;27.448;2022-07-23T00:33:22;101102.13;;;21.23;73.88
8575;BME280;4325;42.520;27.448;2022-07-23T00:35:49;101098.31;;;21.28;75.40
8575;BME280;4325;42.520;27.448;2022-07-23T00:38:16;101100.44;;;21.31;76.13
8575;BME280;4325;42.520;27.448;2022-07-23T00:40:43;101095.84;;;21.35;75.80
8575;BME280;4325;42.520;27.448;2022-07-23T00:43:10;101089.59;;;21.38;73.14
8575;BME280;4325;42.520;27.448;2022-07-23T00:45:37;101093.34;;;21.42;70.35
8575;BME280;4325;42.520;27.448;2022-07-23T00:48:04;101096.28;;;21.45;68.66
8575;BME280;4325;42.520;27.448;2022-07-23T00:50:32;101090.72;;;21.45;68.88
8575;BME280;4325;42.520;27.448;2022-07-23T00:52:59;101093.69;;;21.40;70.32
8575;BME280;4325;42.520;27.448;2022-07-23T00:55:26;101084.19;;;21.41;70.14
8575;BME280;4325;42.520;27.448;2022-07-23T00:57:54;101086.28;;;21.44;69.88
8575;BME280;4325;42.520;27.448;2022-07-23T01:00:21;101085.63;;;21.47;69.93
8575;BME280;4325;42.520;27.448;2022-07-23T01:02:49;101074.81;;;21.46;68.95
8575;BME280;4325;42.520;27.448;2022-07-23T01:05:16;101082.69;;;21.44;68.23
8575;BME280;4325;42.520;27.448;2022-07-23T01:07:49;101092.69;;;21.45;68.15
8575;BME280;4325;42.520;27.448;2022-07-23T01:10:16;101088.94;;;21.41;67.94
8575;BME280;4325;42.520;27.448;2022-07-23T01:12:58;101088.78;;;21.37;68.22
8575;BME280;4325;42.520;27.448;2022-07-23T01:15:25;101084.88;;;21.30;67.97
8575;BME280;4325;42.520;27.448;2022-07-23T01:17:52;101089.50;;;21.26;69.04
8575;BME280;4325;42.520;27.448;2022-07-23T01:20:19;101085.75;;;21.22;70.32
8575;BME280;4325;42.520;27.448;2022-07-23T01:22:48;101086.75;;;21.17;70.52
8575;BME280;4325;42.520;27.448;2022-07-23T01:25:15;101083.16;;;21.17;69.98
8575;BME280;4325;42.520;27.448;2022-07-23T01:27:42;101092.84;;;21.11;69.83
8575;BME280;4325;42.520;27.448;2022-07-23T01:30:10;101076.47;;;21.09;68.54
8575;BME280;4325;42.520;27.448;2022-07-23T01:32:37;101084.66;;;21.05;69.34
8575;BME280;4325;42.520;27.448;2022-07-23T01:35:05;101077.75;;;21.03;69.81
8575;BME280;4325;42.520;27.448;2022-07-23T01:37:32;101076.78;;;21.08;70.29
8575;BME280;4325;42.520;27.448;2022-07-23T01:40:00;101082.69;;;21.06;70.38
8575;BME280;4325;42.520;27.448;2022-07-23T01:42:27;101080.41;;;20.99;71.49
8575;BME280;4325;42.520;27.448;2022-07-23T01:44:54;101080.88;;;21.01;70.18
8575;BME280;4325;42.520;27.448;2022-07-23T01:47:21;101084.81;;;21.00;70.47
8575;BME280;4325;42.520;27.448;2022-07-23T01:49:48;101083.19;;;20.99;70.69
8575;BME280;4325;42.520;27.448;2022-07-23T01:52:14;101095.81;;;20.97;70.91
8575;BME280;4325;42.520;27.448;2022-07-23T01:54:42;101082.06;;;20.92;71.43
8575;BME280;4325;42.520;27.448;2022-07-23T01:57:10;101085.03;;;20.87;72.38
8575;BME280;4325;42.520;27.448;2022-07-23T01:59:37;101086.50;;;20.84;71.85
8575;BME280;4325;42.520;27.448;2022-07-23T02:02:05;101082.47;;;20.73;72.22
8575;BME280;4325;42.520;27.448;2022-07-23T02:04:31;101089.47;;;20.79;71.80
8575;BME280;4325;42.520;27.448;2022-07-23T02:07:00;101085.72;;;20.75;71.57
8575;BME280;4325;42.520;27.448;2022-07-23T02:09:27;101086.53;;;20.76;70.58
8575;BME280;4325;42.520;27.448;2022-07-23T02:11:54;101086.38;;;20.72;70.46
8575;BME280;4325;42.520;27.448;2022-07-23T02:14:22;101080.97;;;20.67;71.18
8575;BME280;4325;42.520;27.448;2022-07-23T02:16:49;101080.16;;;20.67;70.84
8575;BME280;4325;42.520;27.448;2022-07-23T02:19:16;101083.28;;;20.65;70.70
8575;BME280;4325;42.520;27.448;2022-07-23T02:21:43;101081.94;;;20.71;69.83
8575;BME280;4325;42.520;27.448;2022-07-23T02:24:10;101081.28;;;20.74;69.94
8575;BME280;4325;42.520;27.448;2022-07-23T02:26:37;101090.94;;;20.77;70.29
8575;BME280;4325;42.520;27.448;2022-07-23T02:29:04;101096.50;;;20.77;70.62
8575;BME280;4325;42.520;27.448;2022-07-23T02:31:33;101091.78;;;20.77;70.97
8575;BME280;4325;42.520;27.448;2022-07-23T02:34:00;101094.06;;;20.75;70.99
8575;BME280;4325;42.520;27.448;2022-07-23T02:36:27;101092.91;;;20.76;71.29
8575;BME280;4325;42.520;27.448;2022-07-23T02:38:54;101097.47;;;20.81;71.78
8575;BME280;4325;42.520;27.448;2022-07-23T02:41:21;101096.00;;;20.83;71.80
8575;BME280;4325;42.520;27.448;2022-07-23T02:43:48;101099.28;;;20.85;71.74
8575;BME280;4325;42.520;27.448;2022-07-23T02:46:15;101098.28;;;20.90;71.11
8575;BME280;4325;42.520;27.448;2022-07-23T02:48:43;101092.84;;;20.93;70.67
8575;BME280;4325;42.520;27.448;2022-07-23T02:51:10;101090.25;;;20.97;70.58
8575;BME280;4325;42.520;27.448;2022-07-23T02:53:37;101096.13;;;20.95;70.91
8575;BME280;4325;42.520;27.448;2022-07-23T02:56:04;101091.72;;;20.94;71.41
8575;BME280;4325;42.520;27.448;2022-07-23T02:58:31;101099.91;;;20.99;70.71
8575;BME280;4325;42.520;27.448;2022-07-23T03:00:57;101106.41;;;21.03;70.26
8575;BME280;4325;42.520;27.448;2022-07-23T03:03:24;101111.38;;;21.07;69.68
8575;BME280;4325;42.520;27.448;2022-07-23T03:05:52;101098.56;;;21.05;69.97
8575;BME280;4325;42.520;27.448;2022-07-23T03:08:19;101108.59;;;21.07;69.61
8575;BME280;4325;42.520;27.448;2022-07-23T03:10:46;101107.41;;;21.08;69.98
8575;BME280;4325;42.520;27.448;2022-07-23T03:13:13;101109.22;;;21.12;69.95
8575;BME280;4325;42.520;27.448;2022-07-23T03:15:40;101114.94;;;21.16;69.97
8575;BME280;4325;42.520;27.448;2022-07-23T03:18:07;101107.06;;;21.18;69.38
8575;BME280;4325;42.520;27.448;2022-07-23T03:20:33;101118.19;;;21.18;69.71
8575;BME280;4325;42.520;27.448;2022-07-23T03:23:02;101112.63;;;21.18;69.59
8575;BME280;4325;42.520;27.448;2022-07-23T03:25:28;101124.28;;;21.20;70.09
8575;BME280;4325;42.520;27.448;2022-07-23T03:27:55;101112.13;;;21.16;70.20
8575;BME280;4325;42.520;27.448;2022-07-23T03:30:22;101119.84;;;21.19;71.47
8575;BME280;4325;42.520;27.448;2022-07-23T03:32:49;101120.50;;;21.16;72.63
8575;BME280;4325;42.520;27.448;2022-07-23T03:35:16;101118.88;;;21.15;73.10
8575;BME280;4325;42.520;27.448;2022-07-23T03:37:43;101125.25;;;21.15;73.96
8575;BME280;4325;42.520;27.448;2022-07-23T03:40:11;101117.72;;;21.16;74.63
8575;BME280;4325;42.520;27.448;2022-07-23T03:42:38;101118.06;;;21.14;75.57
8575;BME280;4325;42.520;27.448;2022-07-23T03:45:08;101117.53;;;21.21;75.86
8575;BME280;4325;42.520;27.448;2022-07-23T03:47:35;101122.56;;;21.27;76.08
8575;BME280;4325;42.520;27.448;2022-07-23T03:50:02;101125.03;;;21.29;76.09
8575;BME280;4325;42.520;27.448;2022-07-23T03:52:29;101117.31;;;21.34;75.63
8575;BME280;4325;42.520;27.448;2022-07-23T03:54:56;101110.06;;;21.42;75.04
8575;BME280;4325;42.520;27.448;2022-07-23T03:57:24;101109.88;;;21.47;74.41
8575;BME280;4325;42.520;27.448;2022-07-23T03:59:51;101115.72;;;21.54;74.29
8575;BME280;4325;42.520;27.448;2022-07-23T04:02:18;101115.06;;;21.57;74.19
8575;BME280;4325;42.520;27.448;2022-07-23T04:04:45;101115.34;;;21.64;74.46
8575;BME280;4325;42.520;27.448;2022-07-23T04:07:12;101110.47;;;21.61;74.41
8575;BME280;4325;42.520;27.448;2022-07-23T04:09:39;101106.13;;;21.72;74.29
8575;BME280;4325;42.520;27.448;2022-07-23T04:12:07;101106.13;;;21.72;74.24
8575;BME280;4325;42.520;27.448;2022-07-23T04:14:36;101114.56;;;21.84;73.75
8575;BME280;4325;42.520;27.448;2022-07-23T04:17:02;101123.25;;;21.91;72.59
8575;BME280;4325;42.520;27.448;2022-07-23T04:19:29;101116.81;;;21.99;71.85
8575;BME280;4325;42.520;27.448;2022-07-23T04:21:57;101120.91;;;22.02;70.70
8575;BME280;4325;42.520;27.448;2022-07-23T04:24:24;101120.53;;;22.03;69.61
8575;BME280;4325;42.520;27.448;2022-07-23T04:26:50;101116.94;;;22.03;69.25
8575;BME280;4325;42.520;27.448;2022-07-23T04:29:18;101125.25;;;22.11;68.92
8575;BME280;4325;42.520;27.448;2022-07-23T04:31:46;101122.94;;;22.13;68.64
8575;BME280;4325;42.520;27.448;2022-07-23T04:34:13;101124.84;;;22.21;68.20
8575;BME280;4325;42.520;27.448;2022-07-23T04:36:40;101132.25;;;22.17;68.06
8575;BME280;4325;42.520;27.448;2022-07-23T04:39:07;101131.22;;;22.22;68.21
8575;BME280;4325;42.520;27.448;2022-07-23T04:41:34;101116.59;;;22.25;67.78
8575;BME280;4325;42.520;27.448;2022-07-23T04:44:01;101124.63;;;22.26;68.18
8575;BME280;4325;42.520;27.448;2022-07-23T04:46:28;101121.50;;;22.28;67.99
8575;BME280;4325;42.520;27.448;2022-07-23T04:48:56;101120.47;;;22.32;67.40
8575;BME280;4325;42.520;27.448;2022-07-23T04:51:23;101134.22;;;22.38;66.88
8575;BME280;4325;42.520;27.448;2022-07-23T04:53:50;101126.13;;;22.45;66.82
8575;BME280;4325;42.520;27.448;2022-07-23T04:56:17;101122.09;;;22.54;66.32
8575;BME280;4325;42.520;27.448;2022-07-23T04:58:44;101121.69;;;22.64;65.96
8575;BME280;4325;42.520;27.448;2022-07-23T05:01:11;101123.69;;;22.76;65.72
8575;BME280;4325;42.520;27.448;2022-07-23T05:03:38;101118.50;;;22.86;65.43
8575;BME280;4325;42.520;27.448;2022-07-23T05:06:06;101117.94;;;22.93;65.78
8575;BME280;4325;42.520;27.448;2022-07-23T05:08:33;101122.41;;;23.06;64.54
8575;BME280;4325;42.520;27.448;2022-07-23T05:10:59;101121.59;;;23.18;63.98
8575;BME280;4325;42.520;27.448;2022-07-23T05:13:26;101128.03;;;23.30;62.85
8575;BME280;4325;42.520;27.448;2022-07-23T05:15:53;101127.47;;;23.37;62.47
8575;BME280;4325;42.520;27.448;2022-07-23T05:18:20;101128.66;;;23.48;61.81
8575;BME280;4325;42.520;27.448;2022-07-23T05:20:47;101126.44;;;23.53;60.94
8575;BME280;4325;42.520;27.448;2022-07-23T05:23:15;101137.88;;;23.60;60.91
8575;BME280;4325;42.520;27.448;2022-07-23T05:25:42;101126.19;;;23.71;60.37
8575;BME280;4325;42.520;27.448;2022-07-23T05:28:09;101125.72;;;23.81;60.09
8575;BME280;4325;42.520;27.448;2022-07-23T05:30:36;101130.84;;;23.91;59.11
8575;BME280;4325;42.520;27.448;2022-07-23T05:33:03;101122.66;;;23.98;58.25
8575;BME280;4325;42.520;27.448;2022-07-23T05:35:29;101128.03;;;24.03;58.22
8575;BME280;4325;42.520;27.448;2022-07-23T05:37:56;101130.81;;;24.15;58.28
8575;BME280;4325;42.520;27.448;2022-07-23T05:40:27;101128.69;;;24.24;57.87
8575;BME280;4325;42.520;27.448;2022-07-23T05:42:54;101113.06;;;24.35;58.01
8575;BME280;4325;42.520;27.448;2022-07-23T05:45:21;101130.25;;;24.49;57.34
8575;BME280;4325;42.520;27.448;2022-07-23T05:47:49;101124.16;;;24.59;56.71
8575;BME280;4325;42.520;27.448;2022-07-23T05:50:16;101127.78;;;24.75;56.38
8575;BME280;4325;42.520;27.448;2022-07-23T05:52:44;101126.59;;;24.88;56.62
8575;BME280;4325;42.520;27.448;2022-07-23T05:55:11;101119.78;;;25.02;55.54
8575;BME280;4325;42.520;27.448;2022-07-23T05:57:41;101126.47;;;25.13;54.30
8575;BME280;4325;42.520;27.448;2022-07-23T06:00:10;101136.75;;;25.24;54.55
8575;BME280;4325;42.520;27.448;2022-07-23T06:02:37;101138.97;;;25.31;53.61
8575;BME280;4325;42.520;27.448;2022-07-23T06:05:06;101133.53;;;25.38;53.98
8575;BME280;4325;42.520;27.448;2022-07-23T06:07:34;101138.69;;;25.51;53.85
8575;BME280;4325;42.520;27.448;2022-07-23T06:10:02;101131.09;;;25.68;53.66
8575;BME280;4325;42.520;27.448;2022-07-23T06:12:29;101124.84;;;25.74;51.83
8575;BME280;4325;42.520;27.448;2022-07-23T06:14:58;101119.56;;;25.88;51.79
8575;BME280;4325;42.520;27.448;2022-07-23T06:17:25;101125.59;;;26.06;50.43
8575;BME280;4325;42.520;27.448;2022-07-23T06:19:52;101126.75;;;26.20;51.10
8575;BME280;4325;42.520;27.448;2022-07-23T06:22:19;101129.28;;;26.26;50.33
8575;BME280;4325;42.520;27.448;2022-07-23T06:24:45;101121.34;;;26.31;51.01
8575;BME280;4325;42.520;27.448;2022-07-23T06:27:12;101125.56;;;26.41;50.70
8575;BME280;4325;42.520;27.448;2022-07-23T06:29:39;101121.19;;;26.43;50.05
8575;BME280;4325;42.520;27.448;2022-07-23T06:32:08;101120.19;;;26.51;50.15
8575;BME280;4325;42.520;27.448;2022-07-23T06:34:35;101119.50;;;26.58;50.18
8575;BME280;4325;42.520;27.448;2022-07-23T06:37:02;101121.41;;;26.73;48.90
8575;BME280;4325;42.520;27.448;2022-07-23T06:39:29;101123.78;;;26.90;49.13
8575;BME280;4325;42.520;27.448;2022-07-23T06:41:55;101125.31;;;27.07;49.25
8575;BME280;4325;42.520;27.448;2022-07-23T06:44:22;101119.97;;;27.21;48.36
8575;BME280;4325;42.520;27.448;2022-07-23T06:46:49;101113.75;;;27.34;47.79
8575;BME280;4325;42.520;27.448;2022-07-23T06:49:17;101115.59;;;27.46;47.89
8575;BME280;4325;42.520;27.448;2022-07-23T06:51:45;101123.78;;;27.55;48.18
8575;BME280;4325;42.520;27.448;2022-07-23T06:54:11;101109.41;;;27.60;48.15
8575;BME280;4325;42.520;27.448;2022-07-23T06:56:38;101114.41;;;27.73;47.84
8575;BME280;4325;42.520;27.448;2022-07-23T06:59:05;101117.84;;;27.86;47.64
8575;BME280;4325;42.520;27.448;2022-07-23T07:01:32;101116.75;;;27.94;47.10
8575;BME280;4325;42.520;27.448;2022-07-23T07:03:59;101118.06;;;28.00;46.74
8575;BME280;4325;42.520;27.448;2022-07-23T07:06:27;101113.78;;;28.09;45.96
8575;BME280;4325;42.520;27.448;2022-07-23T07:08:54;101115.88;;;28.16;45.23
8575;BME280;4325;42.520;27.448;2022-07-23T07:11:21;101109.63;;;28.30;45.94
8575;BME280;4325;42.520;27.448;2022-07-23T07:13:49;101106.56;;;28.42;45.29
8575;BME280;4325;42.520;27.448;2022-07-23T07:16:16;101107.06;;;28.47;44.46
8575;BME280;4325;42.520;27.448;2022-07-23T07:18:43;101101.53;;;28.58;44.58
8575;BME280;4325;42.520;27.448;2022-07-23T07:21:09;101104.09;;;28.70;44.65
8575;BME280;4325;42.520;27.448;2022-07-23T07:23:38;101109.47;;;28.78;44.32
8575;BME280;4325;42.520;27.448;2022-07-23T07:26:05;101110.38;;;28.90;43.18
8575;BME280;4325;42.520;27.448;2022-07-23T07:28:31;101115.78;;;29.09;43.66
8575;BME280;4325;42.520;27.448;2022-07-23T07:30:58;101111.53;;;29.25;42.04
8575;BME280;4325;42.520;27.448;2022-07-23T07:33:25;101108.06;;;29.39;42.00
8575;BME280;4325;42.520;27.448;2022-07-23T07:35:52;101109.75;;;29.47;42.43
8575;BME280;4325;42.520;27.448;2022-07-23T07:38:19;101118.28;;;29.58;41.70
8575;BME280;4325;42.520;27.448;2022-07-23T07:40:47;101115.91;;;29.63;40.25
8575;BME280;4325;42.520;27.448;2022-07-23T07:43:14;101117.56;;;29.68;40.74
8575;BME280;4325;42.520;27.448;2022-07-23T07:45:41;101112.84;;;29.79;40.89
8575;BME280;4325;42.520;27.448;2022-07-23T07:48:07;101117.84;;;30.03;40.18
8575;BME280;4325;42.520;27.448;2022-07-23T07:50:34;101113.06;;;30.18;39.47
8575;BME280;4325;42.520;27.448;2022-07-23T07:53:01;101113.94;;;30.29;39.10
8575;BME280;4325;42.520;27.448;2022-07-23T07:55:28;101114.00;;;30.36;39.40
8575;BME280;4325;42.520;27.448;2022-07-23T07:57:59;101114.06;;;30.53;38.66
8575;BME280;4325;42.520;27.448;2022-07-23T08:00:26;101111.72;;;30.73;38.32
8575;BME280;4325;42.520;27.448;2022-07-23T08:02:54;101117.44;;;30.91;37.98
8575;BME280;4325;42.520;27.448;2022-07-23T08:05:21;101109.38;;;31.03;38.00
8575;BME280;4325;42.520;27.448;2022-07-23T08:07:49;101111.44;;;31.17;36.92
8575;BME280;4325;42.520;27.448;2022-07-23T08:10:16;101111.41;;;31.13;37.05
8575;BME280;4325;42.520;27.448;2022-07-23T08:12:44;101106.59;;;31.17;36.71
8575;BME280;4325;42.520;27.448;2022-07-23T08:15:14;101113.47;;;31.34;36.54
8575;BME280;4325;42.520;27.448;2022-07-23T08:17:41;101119.16;;;31.52;35.91
8575;BME280;4325;42.520;27.448;2022-07-23T08:20:10;101112.66;;;31.69;35.39
8575;BME280;4325;42.520;27.448;2022-07-23T08:22:45;101098.91;;;31.85;35.55
8575;BME280;4325;42.520;27.448;2022-07-23T08:25:13;101100.91;;;32.02;33.94
8575;BME280;4325;42.520;27.448;2022-07-23T08:27:40;101101.22;;;32.25;34.18
8575;BME280;4325;42.520;27.448;2022-07-23T08:30:08;101085.75;;;32.54;34.05
8575;BME280;4325;42.520;27.448;2022-07-23T08:32:53;101098.03;;;33.03;31.99
8575;BME280;4325;42.520;27.448;2022-07-23T08:35:25;101090.72;;;33.60;30.72
8575;BME280;4325;42.520;27.448;2022-07-23T08:37:52;101095.94;;;34.03;29.40
8575;BME280;4325;42.520;27.448;2022-07-23T08:40:20;101102.94;;;34.66;28.50
8575;BME280;4325;42.520;27.448;2022-07-23T08:42:48;101096.97;;;35.13;27.44
8575;BME280;4325;42.520;27.448;2022-07-23T08:45:17;101100.84;;;35.73;26.42
8575;BME280;4325;42.520;27.448;2022-07-23T08:47:49;101098.16;;;36.68;25.40
8575;BME280;4325;42.520;27.448;2022-07-23T08:50:16;101097.56;;;37.77;24.41
8575;BME280;4325;42.520;27.448;2022-07-23T08:52:43;101097.41;;;39.33;22.20
8575;BME280;4325;42.520;27.448;2022-07-23T08:55:11;101101.75;;;40.62;20.65
8575;BME280;4325;42.520;27.448;2022-07-23T08:57:38;101102.94;;;41.44;19.15
8575;BME280;4325;42.520;27.448;2022-07-23T09:00:05;101107.63;;;42.50;19.11
8575;BME280;4325;42.520;27.448;2022-07-23T09:02:39;101107.84;;;43.30;17.49
8575;BME280;4325;42.520;27.448;2022-07-23T09:05:09;101110.50;;;44.14;17.47
8575;BME280;4325;42.520;27.448;2022-07-23T09:07:37;101116.63;;;44.60;16.70
8575;BME280;4325;42.520;27.448;2022-07-23T09:10:06;101117.81;;;45.12;16.09
8575;BME280;4325;42.520;27.448;2022-07-23T09:12:33;101115.56;;;45.36;15.90
8575;BME280;4325;42.520;27.448;2022-07-23T09:15:04;101116.09;;;45.05;15.66
8575;BME280;4325;42.520;27.448;2022-07-23T09:17:38;101111.94;;;45.06;16.43
8575;BME280;4325;42.520;27.448;2022-07-23T09:20:11;101115.50;;;46.31;16.06
8575;BME280;4325;42.520;27.448;2022-07-23T09:22:44;101121.53;;;47.47;15.07
8575;BME280;4325;42.520;27.448;2022-07-23T09:25:13;101120.31;;;48.29;14.31
8575;BME280;4325;42.520;27.448;2022-07-23T09:27:52;101114.84;;;49.04;14.18
8575;BME280;4325;42.520;27.448;2022-07-23T09:30:20;101106.31;;;50.07;13.27
8575;BME280;4325;42.520;27.448;2022-07-23T09:33:12;101104.47;;;51.16;13.11
8575;BME280;4325;42.520;27.448;2022-07-23T09:35:46;101105.25;;;51.65;12.24
8575;BME280;4325;42.520;27.448;2022-07-23T09:38:14;101104.34;;;51.51;12.03
8575;BME280;4325;42.520;27.448;2022-07-23T09:40:41;101109.50;;;51.64;12.38
8575;BME280;4325;42.520;27.448;2022-07-23T09:43:07;101107.69;;;51.36;12.01
8575;BME280;4325;42.520;27.448;2022-07-23T09:45:34;101103.78;;;50.74;12.12
8575;BME280;4325;42.520;27.448;2022-07-23T09:48:11;101100.19;;;50.16;12.42
8575;BME280;4325;42.520;27.448;2022-07-23T09:50:39;101100.41;;;50.65;12.86
8575;BME280;4325;42.520;27.448;2022-07-23T09:53:07;101102.84;;;49.51;13.07
8575;BME280;4325;42.520;27.448;2022-07-23T09:55:36;101097.13;;;49.02;12.79
8575;BME280;4325;42.520;27.448;2022-07-23T09:58:05;101086.16;;;47.97;12.94
8575;BME280;4325;42.520;27.448;2022-07-23T10:00:33;101084.72;;;47.75;13.81
8575;BME280;4325;42.520;27.448;2022-07-23T10:03:01;101083.13;;;48.72;13.75
8575;BME280;4325;42.520;27.448;2022-07-23T10:05:30;101076.22;;;49.94;12.80
8575;BME280;4325;42.520;27.448;2022-07-23T10:07:57;101081.09;;;50.62;12.85
8575;BME280;4325;42.520;27.448;2022-07-23T10:10:28;101072.41;;;50.80;12.73
8575;BME280;4325;42.520;27.448;2022-07-23T10:12:56;101073.63;;;50.96;12.43
8575;BME280;4325;42.520;27.448;2022-07-23T10:15:37;101069.56;;;50.75;12.57
8575;BME280;4325;42.520;27.448;2022-07-23T10:18:06;101077.25;;;50.43;12.82
8575;BME280;4325;42.520;27.448;2022-07-23T10:20:33;101065.38;;;51.24;12.58
8575;BME280;4325;42.520;27.448;2022-07-23T10:23:11;101059.66;;;51.37;12.57
8575;BME280;4325;42.520;27.448;2022-07-23T10:25:48;101069.22;;;51.99;12.11
8575;BME280;4325;42.520;27.448;2022-07-23T10:28:42;101061.72;;;52.23;12.21
8575;BME280;4325;42.520;27.448;2022-07-23T10:31:20;101066.16;;;50.71;13.46
8575;BME280;4325;42.520;27.448;2022-07-23T10:33:56;101067.56;;;50.94;13.10
8575;BME280;4325;42.520;27.448;2022-07-23T10:36:30;101062.88;;;51.77;12.95
8575;BME280;4325;42.520;27.448;2022-07-23T10:39:04;101068.22;;;52.47;12.81
8575;BME280;4325;42.520;27.448;2022-07-23T10:41:34;101057.56;;;52.31;12.47
8575;BME280;4325;42.520;27.448;2022-07-23T10:44:11;101056.03;;;52.75;12.35
8575;BME280;4325;42.520;27.448;2022-07-23T10:46:57;101051.56;;;52.74;12.06
8575;BME280;4325;42.520;27.448;2022-07-23T10:49:31;101058.84;;;53.25;12.50
8575;BME280;4325;42.520;27.448;2022-07-23T10:52:22;101050.47;;;53.69;12.27
8575;BME280;4325;42.520;27.448;2022-07-23T10:54:51;101053.84;;;53.86;11.61
8575;BME280;4325;42.520;27.448;2022-07-23T10:57:20;101052.28;;;54.19;11.59
8575;BME280;4325;42.520;27.448;2022-07-23T11:02:51;101047.75;;;55.00;11.25
8575;BME280;4325;42.520;27.448;2022-07-23T11:05:20;101037.16;;;55.26;11.31
8575;BME280;4325;42.520;27.448;2022-07-23T11:08:13;101037.09;;;55.10;10.88
8575;BME280;4325;42.520;27.448;2022-07-23T11:10:49;101034.78;;;55.45;11.31
8575;BME280;4325;42.520;27.448;2022-07-23T11:13:48;101035.38;;;54.94;10.96
8575;BME280;4325;42.520;27.448;2022-07-23T11:16:21;101030.97;;;54.80;11.39
8575;BME280;4325;42.520;27.448;2022-07-23T11:19:08;101025.16;;;54.26;11.29
8575;BME280;4325;42.520;27.448;2022-07-23T11:21:50;101030.91;;;53.98;12.03
8575;BME280;4325;42.520;27.448;2022-07-23T11:24:22;101030.47;;;53.60;12.64
8575;BME280;4325;42.520;27.448;2022-07-23T11:26:52;101030.78;;;53.43;12.83
8575;BME280;4325;42.520;27.448;2022-07-23T11:29:43;101018.78;;;53.80;12.10
8575;BME280;4325;42.520;27.448;2022-07-23T11:32:37;101018.06;;;54.01;12.19
8575;BME280;4325;42.520;27.448;2022-07-23T11:35:25;101010.69;;;53.86;12.04
8575;BME280;4325;42.520;27.448;2022-07-23T11:37:54;101016.47;;;54.00;12.88
8575;BME280;4325;42.520;27.448;2022-07-23T11:40:24;101011.41;;;54.00;12.54
8575;BME280;4325;42.520;27.448;2022-07-23T11:42:55;101020.63;;;53.83;13.00
8575;BME280;4325;42.520;27.448;2022-07-23T11:45:25;101014.38;;;53.87;13.20
8575;BME280;4325;42.520;27.448;2022-07-23T11:47:53;101016.31;;;53.84;12.88
8575;BME280;4325;42.520;27.448;2022-07-23T11:50:23;101012.09;;;53.46;13.28
8575;BME280;4325;42.520;27.448;2022-07-23T11:52:50;101018.31;;;53.03;13.63
8575;BME280;4325;42.520;27.448;2022-07-23T11:55:17;101013.00;;;53.15;13.73
8575;BME280;4325;42.520;27.448;2022-07-23T11:57:45;101011.75;;;52.84;14.00
8575;BME280;4325;42.520;27.448;2022-07-23T12:00:15;101015.44;;;52.72;13.97
8575;BME280;4325;42.520;27.448;2022-07-23T12:02:45;101009.28;;;51.93;14.87
8575;BME280;4325;42.520;27.448;2022-07-23T12:05:13;101010.75;;;51.19;15.09
8575;BME280;4325;42.520;27.448;2022-07-23T12:07:42;100997.16;;;51.03;15.71
8575;BME280;4325;42.520;27.448;2022-07-23T12:10:12;101001.91;;;50.82;16.24
8575;BME280;4325;42.520;27.448;2022-07-23T12:12:41;101006.69;;;50.14;16.67
8575;BME280;4325;42.520;27.448;2022-07-23T12:15:10;101007.69;;;49.19;17.53
8575;BME280;4325;42.520;27.448;2022-07-23T12:17:38;101000.66;;;48.64;19.00
8575;BME280;4325;42.520;27.448;2022-07-23T12:20:09;101005.94;;;48.16;19.42
8575;BME280;4325;42.520;27.448;2022-07-23T12:22:40;100994.78;;;47.98;19.64
8575;BME280;4325;42.520;27.448;2022-07-23T12:25:10;100989.94;;;47.61;19.96
8575;BME280;4325;42.520;27.448;2022-07-23T12:27:37;100987.03;;;47.61;20.22
8575;BME280;4325;42.520;27.448;2022-07-23T12:30:22;100995.75;;;47.61;20.09
8575;BME280;4325;42.520;27.448;2022-07-23T12:32:51;100997.84;;;47.61;20.35
8575;BME280;4325;42.520;27.448;2022-07-23T12:35:20;100999.13;;;47.49;20.58
8575;BME280;4325;42.520;27.448;2022-07-23T12:37:50;100994.75;;;47.17;20.69
8575;BME280;4325;42.520;27.448;2022-07-23T12:40:26;100997.34;;;47.09;21.00
8575;BME280;4325;42.520;27.448;2022-07-23T12:42:58;100992.09;;;46.71;21.09
8575;BME280;4325;42.520;27.448;2022-07-23T12:45:26;100990.16;;;46.05;21.89
8575;BME280;4325;42.520;27.448;2022-07-23T12:47:59;101000.28;;;45.69;22.38
8575;BME280;4325;42.520;27.448;2022-07-23T12:50:40;100994.56;;;45.14;22.97
8575;BME280;4325;42.520;27.448;2022-07-23T12:53:09;100989.59;;;45.15;22.86
8575;BME280;4325;42.520;27.448;2022-07-23T12:55:37;100992.75;;;45.17;22.76
8575;BME280;4325;42.520;27.448;2022-07-23T12:58:09;100995.75;;;45.43;22.99
8575;BME280;4325;42.520;27.448;2022-07-23T13:01:04;100986.56;;;45.64;22.77
8575;BME280;4325;42.520;27.448;2022-07-23T13:03:34;100990.66;;;45.78;22.26
8575;BME280;4325;42.520;27.448;2022-07-23T13:06:05;100996.31;;;45.67;22.05
8575;BME280;4325;42.520;27.448;2022-07-23T13:08:33;100998.13;;;45.24;22.51
8575;BME280;4325;42.520;27.448;2022-07-23T13:11:01;100993.31;;;44.66;22.30
8575;BME280;4325;42.520;27.448;2022-07-23T13:13:29;100998.31;;;44.22;23.29